Time;durP1;ratioP1;P1;durP2;ratioP2;P2;SDS_P1;SDS_P2;PMS_P1;PMS_P2;Temp;Humidity;BMP_temperature;BMP_pressure;BME280_temperature;BME280_humidity;BME280_pressure;Samples;Min_cycle;Max_cycle;Signal;HPM_P1;HPM_P2
2023/12/09 00:01:18;;;;;;;6.95;3.08;;;40.60;47.40;;;;;;5055806;28;20534;-72
2023/12/09 00:03:45;;;;;;;5.05;2.42;;;40.70;48.10;;;;;;5054237;28;20428;-72
2023/12/09 00:06:12;;;;;;;4.15;2.60;;;41.00;47.80;;;;;;5051480;28;20098;-72
2023/12/09 00:08:40;;;;;;;7.43;3.20;;;41.20;45.30;;;;;;5052858;28;20021;-70
2023/12/09 00:11:07;;;;;;;8.15;3.00;;;41.10;45.00;;;;;;5048807;28;20103;-70
2023/12/09 00:13:35;;;;;;;5.78;2.58;;;41.20;45.90;;;;;;5053332;28;20021;-70
2023/12/09 00:16:02;;;;;;;9.15;3.05;;;41.40;45.30;;;;;;5053561;28;20047;-70
2023/12/09 00:18:29;;;;;;;8.10;3.22;;;41.20;44.60;;;;;;5051785;28;20374;-69
2023/12/09 00:20:57;;;;;;;6.32;2.67;;;41.50;43.50;;;;;;5058949;28;20107;-70
2023/12/09 00:23:24;;;;;;;8.60;2.97;;;41.80;43.40;;;;;;5048398;28;20025;-70
2023/12/09 00:25:51;;;;;;;8.63;3.20;;;42.10;41.90;;;;;;5052321;28;20029;-70
2023/12/09 00:28:19;;;;;;;6.03;2.80;;;42.20;41.90;;;;;;5055214;28;20040;-70
2023/12/09 00:30:46;;;;;;;7.50;3.10;;;42.30;40.10;;;;;;5041998;28;20484;-70
2023/12/09 00:33:13;;;;;;;4.05;2.65;;;42.30;39.80;;;;;;5048593;28;20071;-70
2023/12/09 00:35:41;;;;;;;5.47;2.80;;;42.10;39.40;;;;;;5048897;28;20033;-71
2023/12/09 00:38:08;;;;;;;4.25;2.90;;;41.80;39.20;;;;;;5042010;28;20052;-70
2023/12/09 00:40:35;;;;;;;7.15;3.15;;;41.90;39.80;;;;;;5049558;28;20017;-71
2023/12/09 00:43:03;;;;;;;6.38;3.08;;;42.30;38.80;;;;;;5044919;28;20465;-71
2023/12/09 00:45:30;;;;;;;6.93;3.45;;;42.60;38.90;;;;;;5045758;28;20167;-71
2023/12/09 00:47:59;;;;;;;7.60;3.13;;;42.80;38.60;;;;;;5047348;28;20021;-71
2023/12/09 00:50:26;;;;;;;5.80;2.97;;;42.80;38.30;;;;;;5040308;28;20049;-71
2023/12/09 00:52:54;;;;;;;5.10;3.20;;;42.90;37.60;;;;;;5044247;28;20029;-71
2023/12/09 00:55:21;;;;;;;3.60;2.72;;;43.00;37.30;;;;;;5048330;28;20389;-71
2023/12/09 00:57:48;;;;;;;8.98;2.88;;;42.90;37.30;;;;;;5051330;28;20458;-71
2023/12/09 01:00:16;;;;;;;5.38;2.40;;;42.90;37.70;;;;;;5050510;28;20049;-72
2023/12/09 01:02:43;;;;;;;5.40;2.80;;;42.70;37.50;;;;;;5047336;28;20026;-71
2023/12/09 01:05:11;;;;;;;6.97;2.88;;;42.60;37.20;;;;;;5048524;28;20026;-71
2023/12/09 01:07:38;;;;;;;6.28;2.67;;;42.70;37.60;;;;;;5052049;28;20053;-72
2023/12/09 01:10:06;;;;;;;8.23;2.78;;;42.80;37.00;;;;;;5048374;28;20068;-71
2023/12/09 01:12:33;;;;;;;6.07;3.20;;;42.80;36.90;;;;;;5049920;28;20025;-70
2023/12/09 01:15:00;;;;;;;7.25;2.92;;;42.80;36.80;;;;;;5051438;28;20056;-71
2023/12/09 01:17:28;;;;;;;6.28;2.78;;;43.00;37.10;;;;;;5052004;28;20024;-70
2023/12/09 01:19:55;;;;;;;6.07;2.83;;;43.40;36.70;;;;;;5052359;28;20073;-70
2023/12/09 01:22:23;;;;;;;9.02;2.92;;;43.70;36.90;;;;;;5050438;28;20063;-71
2023/12/09 01:24:50;;;;;;;6.10;3.08;;;43.70;36.50;;;;;;5050260;28;20162;-72
2023/12/09 01:27:17;;;;;;;4.82;2.67;;;43.60;36.50;;;;;;5052876;28;20466;-71
2023/12/09 01:29:45;;;;;;;5.28;2.75;;;43.20;36.50;;;;;;5056754;28;20029;-71
2023/12/09 01:32:12;;;;;;;5.50;3.20;;;43.30;36.80;;;;;;5057079;28;20029;-71
2023/12/09 01:34:40;;;;;;;5.97;2.80;;;43.60;36.40;;;;;;5054652;28;20106;-72
2023/12/09 01:37:07;;;;;;;6.22;3.20;;;43.80;36.60;;;;;;5054557;28;20029;-70
2023/12/09 01:39:37;;;;;;;4.30;2.88;;;43.70;36.40;;;;;;5054700;28;20032;-70
2023/12/09 01:42:04;;;;;;;5.90;2.60;;;43.50;36.00;;;;;;5059000;28;20017;-70
2023/12/09 01:44:32;;;;;;;7.20;3.10;;;43.50;36.20;;;;;;5054286;28;20378;-70
2023/12/09 01:46:59;;;;;;;4.45;2.83;;;43.70;36.40;;;;;;5057407;28;20029;-70
2023/12/09 01:49:30;;;;;;;7.55;3.05;;;44.10;36.60;;;;;;5049842;28;20032;-71
2023/12/09 01:51:59;;;;;;;4.07;3.10;;;44.40;36.20;;;;;;5053802;28;20036;-70
2023/12/09 01:54:27;;;;;;;8.15;2.83;;;44.30;35.80;;;;;;5056447;28;20136;-71
2023/12/09 01:56:56;;;;;;;6.32;3.03;;;44.70;36.10;;;;;;5048019;28;20115;-71
2023/12/09 01:59:24;;;;;;;5.80;3.03;;;45.00;35.10;;;;;;5059237;28;20063;-71
2023/12/09 02:01:53;;;;;;;5.28;3.00;;;44.60;35.80;;;;;;5046685;28;20029;-71
2023/12/09 02:04:21;;;;;;;3.97;2.83;;;44.70;35.40;;;;;;5048483;28;20053;-72
2023/12/09 02:06:48;;;;;;;6.35;2.90;;;44.40;35.80;;;;;;5051914;28;20030;-72
2023/12/09 02:09:18;;;;;;;3.80;2.88;;;44.50;36.00;;;;;;5048846;28;20060;-71
2023/12/09 02:12:10;;;;;;;8.55;3.42;;;44.90;35.40;;;;;;5050965;28;20029;-71
2023/12/09 02:14:45;;;;;;;7.28;3.38;;;44.90;34.80;;;;;;5051123;28;20087;-71
2023/12/09 02:17:28;;;;;;;7.10;3.15;;;44.50;34.70;;;;;;5044415;28;20033;-72
2023/12/09 02:19:55;;;;;;;4.38;2.90;;;44.10;34.60;;;;;;5045758;28;20075;-72
2023/12/09 02:22:23;;;;;;;7.70;3.28;;;44.60;34.40;;;;;;5044701;28;20071;-72
2023/12/09 02:24:50;;;;;;;6.50;2.67;;;45.30;35.10;;;;;;5044219;28;20029;-71
2023/12/09 02:27:28;;;;;;;4.55;3.00;;;45.50;34.20;;;;;;5056036;28;20048;-72
2023/12/09 02:30:09;;;;;;;3.70;2.58;;;45.70;34.00;;;;;;5049180;28;20520;-72
2023/12/09 02:32:38;;;;;;;6.75;3.70;;;45.70;33.00;;;;;;5046598;28;20091;-71
2023/12/09 02:35:08;;;;;;;4.38;2.83;;;45.40;33.60;;;;;;5053045;28;20074;-70
2023/12/09 02:37:37;;;;;;;7.85;3.05;;;45.70;33.50;;;;;;5043527;28;20032;-73
2023/12/09 02:40:09;;;;;;;3.20;2.50;;;45.50;33.30;;;;;;5051984;28;20028;-71
2023/12/09 02:42:38;;;;;;;3.83;2.85;;;45.40;33.40;;;;;;5049575;28;20036;-71
2023/12/09 02:45:08;;;;;;;6.38;2.50;;;45.10;33.30;;;;;;5049950;28;20024;-73
2023/12/09 02:47:36;;;;;;;5.10;2.80;;;44.80;33.10;;;;;;5050176;28;20049;-71
2023/12/09 02:50:04;;;;;;;5.38;2.90;;;44.80;33.90;;;;;;5050825;28;20480;-72
2023/12/09 02:52:31;;;;;;;4.88;2.60;;;45.10;33.50;;;;;;5053342;28;20041;-72
2023/12/09 02:54:58;;;;;;;6.65;2.90;;;45.10;33.80;;;;;;5055880;28;20469;-73
2023/12/09 02:57:25;;;;;;;5.45;2.53;;;45.10;32.70;;;;;;5044092;28;20040;-73
2023/12/09 02:59:53;;;;;;;4.38;2.55;;;45.10;32.50;;;;;;5046142;28;20048;-71
2023/12/09 03:02:20;;;;;;;5.40;2.70;;;45.50;32.50;;;;;;5044642;28;20505;-70
2023/12/09 03:04:47;;;;;;;3.50;2.40;;;45.50;32.30;;;;;;5047347;28;20048;-73
2023/12/09 03:07:19;;;;;;;9.27;2.97;;;45.30;32.20;;;;;;5047856;28;20041;-71
2023/12/09 03:09:50;;;;;;;5.07;2.85;;;45.90;32.30;;;;;;5047759;28;20025;-71
2023/12/09 03:12:18;;;;;;;4.03;2.50;;;45.70;32.30;;;;;;5046493;28;20099;-70
2023/12/09 03:14:45;;;;;;;5.15;2.35;;;45.70;32.70;;;;;;5051275;28;20045;-70
2023/12/09 03:17:12;;;;;;;5.47;3.28;;;46.00;31.90;;;;;;5047984;28;20469;-69
2023/12/09 03:19:40;;;;;;;5.00;2.90;;;45.80;32.20;;;;;;5046439;28;20082;-70
2023/12/09 03:22:07;;;;;;;3.78;2.95;;;45.20;31.60;;;;;;5042241;28;20040;-69
2023/12/09 03:24:34;;;;;;;8.27;2.97;;;44.40;32.40;;;;;;5052684;28;20035;-71
2023/12/09 03:27:02;;;;;;;4.47;2.50;;;44.00;32.50;;;;;;5051536;28;20036;-70
2023/12/09 03:29:29;;;;;;;5.35;3.10;;;44.20;32.40;;;;;;5045560;28;20074;-71
2023/12/09 03:31:56;;;;;;;4.32;2.30;;;44.80;32.60;;;;;;5048727;28;20485;-72
2023/12/09 03:34:24;;;;;;;5.05;2.60;;;45.40;32.30;;;;;;5048959;28;20387;-71
2023/12/09 03:36:51;;;;;;;4.35;2.13;;;45.60;32.90;;;;;;5043193;28;20056;-70
2023/12/09 03:39:19;;;;;;;5.28;2.50;;;45.90;31.60;;;;;;5043590;28;20025;-70
2023/12/09 03:41:46;;;;;;;4.18;2.50;;;45.00;31.40;;;;;;5041963;28;20074;-70
2023/12/09 03:44:13;;;;;;;4.03;3.13;;;45.10;31.90;;;;;;5045999;28;20075;-71
2023/12/09 03:46:43;;;;;;;3.75;2.67;;;44.60;32.30;;;;;;5041978;28;20029;-71
2023/12/09 03:49:11;;;;;;;4.07;2.67;;;44.40;32.30;;;;;;5044828;28;20025;-71
2023/12/09 03:51:38;;;;;;;5.15;2.67;;;44.20;32.40;;;;;;5040336;28;20039;-72
2023/12/09 03:54:05;;;;;;;4.50;2.30;;;44.00;32.20;;;;;;5044994;28;20505;-71
2023/12/09 03:56:33;;;;;;;5.20;2.50;;;44.30;32.00;;;;;;5042530;28;20071;-71
2023/12/09 03:59:00;;;;;;;4.15;2.22;;;44.90;32.30;;;;;;5042608;28;20049;-72
2023/12/09 04:01:27;;;;;;;3.47;2.03;;;45.40;31.60;;;;;;5049679;28;20031;-72
2023/12/09 04:03:55;;;;;;;4.75;2.45;;;46.00;31.50;;;;;;5038934;28;20381;-72
2023/12/09 04:06:22;;;;;;;3.08;2.10;;;46.40;31.90;;;;;;5041634;28;20032;-71
2023/12/09 04:08:49;;;;;;;5.75;2.20;;;46.30;30.30;;;;;;5047899;28;20036;-72
2023/12/09 04:11:17;;;;;;;3.67;2.22;;;45.70;31.00;;;;;;5048598;28;20026;-73
2023/12/09 04:13:44;;;;;;;3.10;2.50;;;45.10;31.70;;;;;;5048412;28;20100;-72
2023/12/09 04:16:11;;;;;;;5.70;2.58;;;45.00;31.80;;;;;;5048846;28;20076;-71
2023/12/09 04:18:39;;;;;;;4.88;2.28;;;45.40;31.90;;;;;;5042780;28;20370;-72
2023/12/09 04:21:06;;;;;;;4.05;2.28;;;45.60;32.00;;;;;;5045799;28;20054;-71
2023/12/09 04:23:34;;;;;;;4.00;2.42;;;45.70;32.00;;;;;;5053415;28;20418;-71
2023/12/09 04:26:01;;;;;;;8.35;2.50;;;45.90;32.30;;;;;;5049680;28;20029;-72
2023/12/09 04:28:29;;;;;;;3.80;1.98;;;46.00;31.70;;;;;;5049828;28;20032;-73
2023/12/09 04:30:56;;;;;;;3.50;1.80;;;45.70;30.40;;;;;;5057297;28;20115;-72
2023/12/09 04:33:24;;;;;;;4.50;2.45;;;45.50;30.50;;;;;;5054338;28;20029;-72
2023/12/09 04:35:51;;;;;;;3.72;2.15;;;45.40;30.20;;;;;;5050630;28;20120;-71
2023/12/09 04:38:18;;;;;;;4.03;2.30;;;45.30;30.80;;;;;;5056945;28;20095;-71
2023/12/09 04:40:46;;;;;;;3.47;2.10;;;45.40;31.20;;;;;;5055486;28;20034;-72
2023/12/09 04:43:13;;;;;;;4.68;2.60;;;45.60;31.20;;;;;;5052529;28;20490;-71
2023/12/09 04:45:40;;;;;;;2.85;2.20;;;45.60;31.10;;;;;;5051465;28;20025;-71
2023/12/09 04:48:08;;;;;;;3.65;2.15;;;45.70;30.80;;;;;;5057546;28;20016;-70
2023/12/09 04:50:35;;;;;;;4.30;2.55;;;45.40;31.30;;;;;;5051568;28;20024;-71
2023/12/09 04:53:02;;;;;;;2.55;2.08;;;45.30;31.00;;;;;;5058691;28;20028;-72
2023/12/09 04:55:30;;;;;;;5.28;2.42;;;45.10;30.90;;;;;;5057015;28;20063;-72
2023/12/09 04:57:57;;;;;;;4.47;2.40;;;45.30;30.90;;;;;;5054067;28;20033;-71
2023/12/09 05:00:24;;;;;;;3.15;2.22;;;45.10;31.10;;;;;;5054146;28;20047;-72
2023/12/09 05:02:52;;;;;;;3.10;2.13;;;45.00;30.90;;;;;;5052529;28;20132;-71
2023/12/09 05:05:19;;;;;;;7.78;2.58;;;44.90;31.50;;;;;;5053493;28;20052;-72
2023/12/09 05:07:51;;;;;;;4.18;2.15;;;45.00;31.40;;;;;;5054695;28;20031;-71
2023/12/09 05:10:19;;;;;;;3.75;2.35;;;45.30;32.20;;;;;;5051909;28;20484;-71
2023/12/09 05:12:46;;;;;;;4.13;2.42;;;45.50;32.00;;;;;;5048973;28;20435;-71
2023/12/09 05:15:13;;;;;;;4.20;2.50;;;45.70;31.70;;;;;;5049586;28;20036;-71
2023/12/09 05:17:41;;;;;;;4.53;2.50;;;45.60;31.40;;;;;;5051192;28;20025;-71
2023/12/09 05:20:09;;;;;;;4.30;2.47;;;45.00;31.70;;;;;;5044429;28;20521;-71
2023/12/09 05:22:37;;;;;;;3.70;2.33;;;44.90;31.80;;;;;;5049254;28;20040;-71
2023/12/09 05:25:05;;;;;;;5.68;2.47;;;44.90;32.00;;;;;;5053090;28;20025;-71
2023/12/09 05:27:32;;;;;;;5.35;2.45;;;44.50;32.10;;;;;;5052943;28;20055;-71
2023/12/09 05:29:59;;;;;;;4.68;2.38;;;44.10;32.20;;;;;;5057654;28;20024;-72
2023/12/09 05:32:27;;;;;;;3.78;2.08;;;44.10;32.80;;;;;;5048615;28;20033;-71
2023/12/09 05:34:54;;;;;;;4.63;2.40;;;44.00;32.60;;;;;;5048003;28;20041;-71
2023/12/09 05:37:21;;;;;;;3.58;2.35;;;44.20;32.30;;;;;;5049201;28;20529;-72
2023/12/09 05:39:49;;;;;;;3.42;2.22;;;43.90;31.90;;;;;;5048232;28;20036;-71
2023/12/09 05:42:16;;;;;;;4.50;2.60;;;44.00;32.40;;;;;;5044668;28;20037;-71
2023/12/09 05:44:43;;;;;;;3.70;2.38;;;44.00;32.60;;;;;;5047636;28;20024;-71
2023/12/09 05:47:11;;;;;;;4.90;2.35;;;44.00;32.20;;;;;;5049427;28;20040;-71
2023/12/09 05:49:38;;;;;;;4.95;2.40;;;44.00;32.10;;;;;;5072045;28;20029;-72
2023/12/09 05:52:06;;;;;;;3.83;2.40;;;43.90;32.20;;;;;;5046049;28;20059;-71
2023/12/09 05:54:34;;;;;;;3.90;2.10;;;43.70;32.60;;;;;;5048064;28;20478;-71
2023/12/09 05:57:01;;;;;;;5.00;2.45;;;43.80;32.80;;;;;;5049755;28;20032;-71
2023/12/09 05:59:29;;;;;;;4.35;2.00;;;44.00;32.50;;;;;;5046309;28;20045;-71
2023/12/09 06:01:56;;;;;;;5.25;2.40;;;44.20;32.30;;;;;;5047350;28;20034;-72
2023/12/09 06:04:24;;;;;;;6.13;2.28;;;44.40;31.80;;;;;;5048272;28;20044;-72
2023/12/09 06:06:51;;;;;;;3.97;1.77;;;44.60;31.20;;;;;;5048280;28;20025;-72
2023/12/09 06:09:19;;;;;;;4.15;1.88;;;44.60;30.50;;;;;;5057652;28;20024;-73
2023/12/09 06:11:46;;;;;;;4.15;1.65;;;44.40;30.40;;;;;;5052698;28;20030;-70
2023/12/09 06:14:14;;;;;;;3.50;1.60;;;44.00;30.80;;;;;;5052288;28;20046;-71
2023/12/09 06:16:41;;;;;;;4.40;2.17;;;43.90;31.00;;;;;;5055203;28;20044;-71
2023/12/09 06:19:09;;;;;;;2.60;1.65;;;43.90;31.20;;;;;;5048255;28;20470;-71
2023/12/09 06:21:36;;;;;;;3.92;1.92;;;44.00;30.20;;;;;;5052253;28;20028;-71
2023/12/09 06:24:03;;;;;;;4.55;2.10;;;43.90;31.00;;;;;;5054709;28;20020;-71
2023/12/09 06:26:31;;;;;;;4.32;2.00;;;43.80;31.10;;;;;;5053878;28;20056;-72
2023/12/09 06:28:58;;;;;;;3.13;1.90;;;43.60;31.20;;;;;;5051668;28;20491;-72
2023/12/09 06:31:26;;;;;;;7.47;1.92;;;43.50;31.40;;;;;;5053148;28;20390;-72
2023/12/09 06:33:53;;;;;;;6.93;1.95;;;43.70;31.20;;;;;;5047876;28;20033;-72
2023/12/09 06:36:20;;;;;;;5.20;1.90;;;43.70;31.40;;;;;;5053513;28;20040;-73
2023/12/09 06:38:51;;;;;;;3.65;1.48;;;43.80;31.60;;;;;;5056067;28;20981;-72
2023/12/09 06:41:18;;;;;;;4.20;2.10;;;43.90;31.20;;;;;;5049488;28;20377;-73
2023/12/09 06:43:46;;;;;;;3.72;1.88;;;44.00;31.50;;;;;;5047454;28;20080;-73
2023/12/09 06:46:13;;;;;;;2.50;1.60;;;44.10;31.00;;;;;;5051718;28;20059;-72
2023/12/09 06:48:41;;;;;;;6.07;1.90;;;43.90;31.30;;;;;;5057867;28;20029;-71
2023/12/09 06:51:18;;;;;;;4.70;2.78;;;43.70;31.90;;;;;;5049582;28;20028;-71
2023/12/09 06:53:45;;;;;;;5.00;3.00;;;43.30;34.60;;;;;;5050690;28;20045;-71
2023/12/09 06:56:22;;;;;;;6.10;2.80;;;42.60;35.50;;;;;;5049949;28;20047;-70
2023/12/09 06:58:51;;;;;;;5.35;3.10;;;42.20;35.80;;;;;;5043622;28;20517;-71
2023/12/09 07:01:25;;;;;;;4.45;2.38;;;41.80;35.80;;;;;;5049276;28;20077;-71
2023/12/09 07:03:52;;;;;;;5.97;2.80;;;41.50;36.20;;;;;;5046677;28;20118;-71
2023/12/09 07:06:26;;;;;;;3.78;2.92;;;41.30;36.00;;;;;;5046206;28;20486;-71
2023/12/09 07:08:54;;;;;;;5.47;3.00;;;41.10;36.70;;;;;;5049596;28;20123;-71
2023/12/09 07:11:22;;;;;;;6.25;2.90;;;40.90;36.40;;;;;;5046216;28;20025;-71
2023/12/09 07:13:50;;;;;;;4.07;2.95;;;40.70;36.90;;;;;;5047479;28;20063;-71
2023/12/09 07:16:18;;;;;;;5.35;3.00;;;40.70;36.90;;;;;;5041106;28;20083;-72
2023/12/09 07:18:47;;;;;;;2.97;2.55;;;40.60;37.20;;;;;;5044007;28;20017;-72
2023/12/09 07:21:18;;;;;;;7.13;2.70;;;40.60;36.70;;;;;;5052958;28;20032;-70
2023/12/09 07:23:45;;;;;;;5.20;2.90;;;40.70;36.90;;;;;;5047490;28;20024;-70
2023/12/09 07:26:13;;;;;;;7.40;2.55;;;40.70;36.60;;;;;;5045496;28;20475;-71
2023/12/09 07:28:40;;;;;;;5.13;2.72;;;40.60;37.00;;;;;;5042932;28;20104;-70
2023/12/09 07:31:08;;;;;;;6.70;3.00;;;40.40;37.20;;;;;;5039098;28;20155;-70
2023/12/09 07:33:35;;;;;;;3.97;3.25;;;40.30;37.60;;;;;;5047348;28;20421;-71
2023/12/09 07:36:02;;;;;;;4.97;3.17;;;40.10;38.70;;;;;;5043061;28;20048;-72
2023/12/09 07:38:30;;;;;;;5.40;3.58;;;39.90;38.80;;;;;;5043507;28;20033;-72
2023/12/09 07:40:57;;;;;;;5.97;3.50;;;39.70;39.20;;;;;;5045057;28;20079;-70
2023/12/09 07:43:26;;;;;;;5.80;4.35;;;39.60;39.40;;;;;;5042360;28;20470;-70
2023/12/09 07:45:53;;;;;;;7.50;4.10;;;39.50;39.40;;;;;;5047413;28;20028;-71
2023/12/09 07:48:20;;;;;;;8.35;4.28;;;39.20;39.30;;;;;;5053929;28;20404;-70
2023/12/09 07:50:48;;;;;;;7.03;3.95;;;39.00;39.60;;;;;;5045675;28;20142;-72
2023/12/09 07:53:16;;;;;;;8.95;4.32;;;38.90;39.70;;;;;;5049819;28;20136;-72
2023/12/09 07:55:43;;;;;;;6.32;4.20;;;38.60;40.00;;;;;;5055898;28;20068;-72
2023/12/09 07:58:11;;;;;;;7.85;3.95;;;38.50;40.00;;;;;;5044722;28;20025;-72
2023/12/09 08:00:38;;;;;;;6.25;3.65;;;38.30;40.70;;;;;;5046200;28;20037;-73
2023/12/09 08:03:06;;;;;;;8.50;4.20;;;38.00;41.10;;;;;;5052630;28;20025;-74
2023/12/09 08:05:36;;;;;;;8.65;4.07;;;37.80;41.50;;;;;;5048310;28;20036;-72
2023/12/09 08:08:04;;;;;;;7.43;4.22;;;37.80;41.90;;;;;;5050819;28;20462;-71
2023/12/09 08:10:31;;;;;;;8.55;4.38;;;37.80;42.30;;;;;;5050162;28;20017;-72
2023/12/09 08:12:58;;;;;;;6.68;4.22;;;37.70;42.50;;;;;;5056509;28;20035;-71
2023/12/09 08:15:26;;;;;;;10.43;4.30;;;37.60;42.50;;;;;;5050948;28;20401;-71
2023/12/09 08:17:53;;;;;;;8.27;3.80;;;37.60;42.70;;;;;;5051386;28;20550;-70
2023/12/09 08:20:20;;;;;;;8.70;4.47;;;37.50;43.10;;;;;;5055382;28;20148;-71
2023/12/09 08:22:48;;;;;;;9.05;4.45;;;37.40;43.30;;;;;;5054812;28;20032;-72
2023/12/09 08:25:15;;;;;;;7.70;4.30;;;37.30;43.50;;;;;;5055639;28;20025;-71
2023/12/09 08:27:44;;;;;;;8.23;5.00;;;37.10;43.90;;;;;;5047657;28;20033;-71
2023/12/09 08:30:12;;;;;;;7.85;4.45;;;36.90;44.10;;;;;;5053354;28;20121;-70
2023/12/09 08:32:41;;;;;;;7.72;4.38;;;36.80;44.30;;;;;;5049387;28;20081;-70
2023/12/09 08:35:12;;;;;;;9.70;4.50;;;36.80;44.50;;;;;;5049739;28;20064;-71
2023/12/09 08:37:40;;;;;;;8.15;4.03;;;36.70;44.70;;;;;;5055506;28;20034;-70
2023/12/09 08:40:10;;;;;;;7.60;4.30;;;36.50;45.00;;;;;;5049575;28;20081;-71
2023/12/09 08:42:42;;;;;;;11.40;5.38;;;36.40;45.20;;;;;;5046063;28;20020;-71
2023/12/09 08:45:12;;;;;;;10.95;4.53;;;36.30;45.50;;;;;;5047420;28;20040;-70
2023/12/09 08:47:41;;;;;;;11.13;4.50;;;36.20;45.70;;;;;;5044805;28;20482;-70
2023/12/09 08:50:09;;;;;;;6.38;4.35;;;36.20;45.90;;;;;;5054523;28;20021;-70
2023/12/09 08:52:37;;;;;;;15.65;4.47;;;36.20;45.90;;;;;;5054711;28;20416;-69
2023/12/09 08:55:05;;;;;;;16.70;4.50;;;36.00;46.40;;;;;;5045067;28;20151;-69
2023/12/09 08:57:32;;;;;;;21.00;4.53;;;35.50;48.60;;;;;;5049352;28;20163;-70
2023/12/09 08:59:59;;;;;;;17.40;4.03;;;34.70;51.90;;;;;;5044021;28;20049;-70
2023/12/09 09:02:27;;;;;;;19.05;4.47;;;33.70;54.40;;;;;;5044134;28;20483;-69
2023/12/09 09:04:55;;;;;;;24.45;4.93;;;33.10;56.50;;;;;;5046233;28;20474;-71
2023/12/09 09:07:22;;;;;;;30.05;5.40;;;32.40;59.30;;;;;;5041594;28;20044;-71
2023/12/09 09:09:49;;;;;;;25.63;4.97;;;32.00;61.50;;;;;;5056097;28;20483;-71
2023/12/09 09:12:17;;;;;;;30.67;5.60;;;31.60;63.70;;;;;;5049086;28;20163;-70
2023/12/09 09:14:44;;;;;;;23.63;6.45;;;31.20;65.90;;;;;;5048615;28;20033;-69
2023/12/09 09:17:12;;;;;;;32.15;5.90;;;30.80;68.40;;;;;;5051770;28;20163;-70
2023/12/09 09:19:39;;;;;;;31.52;6.00;;;30.50;71.00;;;;;;5049945;28;20506;-70
2023/12/09 09:22:07;;;;;;;28.60;6.35;;;30.10;74.40;;;;;;5048871;28;20036;-70
2023/12/09 09:24:34;;;;;;;25.90;6.55;;;29.70;78.00;;;;;;5052283;28;20168;-70
2023/12/09 09:27:01;;;;;;;26.42;6.18;;;29.50;82.10;;;;;;5049346;28;20029;-71
2023/12/09 09:29:29;;;;;;;31.58;6.95;;;29.30;85.00;;;;;;5052138;28;20036;-70
2023/12/09 09:31:56;;;;;;;27.30;6.72;;;29.10;87.60;;;;;;5060821;28;20377;-69
2023/12/09 09:34:23;;;;;;;36.22;6.53;;;29.00;89.30;;;;;;5051567;28;20071;-70
2023/12/09 09:36:51;;;;;;;34.58;7.00;;;28.70;90.50;;;;;;5056325;28;20025;-71
2023/12/09 09:39:18;;;;;;;27.48;6.70;;;28.50;91.50;;;;;;5051698;28;20068;-72
2023/12/09 09:42:11;;;;;;;20.60;5.30;;;28.60;91.40;;;;;;5055683;28;20115;-71
2023/12/09 09:44:48;;;;;;;30.13;6.75;;;28.50;91.50;;;;;;5028687;28;20086;-70
2023/12/09 09:47:16;;;;;;;28.92;5.88;;;28.30;91.70;;;;;;5055767;28;20037;-70
2023/12/09 09:49:47;;;;;;;32.33;6.07;;;28.30;92.10;;;;;;5055990;28;20033;-70
2023/12/09 09:52:18;;;;;;;29.23;6.30;;;28.00;92.50;;;;;;5053850;28;20036;-70
2023/12/09 09:54:46;;;;;;;25.83;6.03;;;28.00;92.80;;;;;;5055852;28;20043;-70
2023/12/09 09:57:14;;;;;;;26.65;6.57;;;27.90;92.90;;;;;;5054709;28;20619;-70
2023/12/09 09:59:41;;;;;;;28.08;6.97;;;27.90;93.20;;;;;;5052255;28;20072;-70
2023/12/09 10:02:10;;;;;;;28.15;6.65;;;27.80;93.30;;;;;;5051380;28;20040;-71
2023/12/09 10:04:38;;;;;;;29.90;6.55;;;27.70;93.30;;;;;;5049211;28;20033;-71
2023/12/09 10:07:05;;;;;;;30.80;6.57;;;27.70;93.60;;;;;;5055303;28;20028;-71
2023/12/09 10:09:33;;;;;;;27.67;6.45;;;27.60;93.60;;;;;;5048927;28;20029;-70
2023/12/09 10:12:00;;;;;;;26.90;6.05;;;27.70;93.60;;;;;;5050760;28;20504;-69
2023/12/09 10:14:28;;;;;;;30.10;6.82;;;27.60;93.80;;;;;;5055497;28;20027;-70
2023/12/09 10:16:56;;;;;;;27.17;6.28;;;27.50;94.10;;;;;;5049341;28;20094;-70
2023/12/09 10:19:24;;;;;;;33.85;6.50;;;27.50;94.30;;;;;;5045589;28;20033;-71
2023/12/09 10:21:51;;;;;;;33.95;6.10;;;27.60;94.20;;;;;;5057062;28;20029;-71
2023/12/09 10:24:18;;;;;;;31.98;6.32;;;27.40;94.20;;;;;;5048283;28;20492;-70
2023/12/09 10:26:46;;;;;;;27.90;6.78;;;27.40;94.40;;;;;;5048143;28;20025;-70
2023/12/09 10:29:14;;;;;;;29.05;5.68;;;27.30;94.50;;;;;;5043159;28;20033;-71
2023/12/09 10:31:41;;;;;;;23.42;5.35;;;27.30;94.70;;;;;;5046619;28;20056;-72
2023/12/09 10:34:12;;;;;;;24.10;5.97;;;27.20;95.00;;;;;;5047943;28;20537;-72
2023/12/09 10:36:41;;;;;;;23.83;5.95;;;27.00;95.30;;;;;;5043992;28;20406;-71
2023/12/09 10:39:09;;;;;;;20.02;5.32;;;27.00;95.40;;;;;;5043505;28;20036;-71
2023/12/09 10:41:37;;;;;;;24.33;5.63;;;27.00;95.50;;;;;;5047888;28;20512;-70
2023/12/09 10:44:05;;;;;;;25.25;5.53;;;27.10;95.50;;;;;;5045334;28;20095;-69
2023/12/09 10:46:33;;;;;;;23.08;5.63;;;27.10;95.60;;;;;;5041698;28;20108;-70
2023/12/09 10:49:00;;;;;;;28.92;6.38;;;26.90;95.90;;;;;;5045793;28;20363;-71
2023/12/09 10:51:27;;;;;;;25.17;6.35;;;26.90;96.10;;;;;;5044477;28;20032;-70
2023/12/09 10:53:55;;;;;;;26.48;5.22;;;26.90;96.10;;;;;;5050422;28;20534;-69
2023/12/09 10:56:22;;;;;;;26.80;6.03;;;26.90;96.10;;;;;;5049724;28;20114;-69
2023/12/09 10:58:52;;;;;;;26.98;6.43;;;26.90;96.20;;;;;;5050123;28;20048;-70
2023/12/09 11:01:20;;;;;;;32.88;6.90;;;26.80;96.30;;;;;;5045374;28;20029;-70
2023/12/09 11:03:47;;;;;;;24.25;6.38;;;26.90;96.20;;;;;;5048458;28;20024;-71
2023/12/09 11:06:16;;;;;;;22.75;5.80;;;26.80;96.30;;;;;;5047358;28;20480;-70
2023/12/09 11:08:44;;;;;;;20.58;5.47;;;26.80;96.40;;;;;;5047899;28;20028;-70
2023/12/09 11:11:12;;;;;;;23.08;6.47;;;26.80;96.80;;;;;;5053236;28;20115;-70
2023/12/09 11:13:44;;;;;;;27.25;6.60;;;26.80;96.70;;;;;;5049958;28;20040;-70
2023/12/09 11:16:14;;;;;;;22.48;6.00;;;26.60;96.60;;;;;;5050941;28;20128;-70
2023/12/09 11:18:55;;;;;;;23.48;5.97;;;26.70;96.50;;;;;;5045771;28;20049;-70
2023/12/09 11:21:26;;;;;;;27.20;6.75;;;26.80;96.60;;;;;;5047349;28;20020;-71
2023/12/09 11:23:54;;;;;;;24.70;7.10;;;26.80;96.60;;;;;;5052894;28;20071;-71
2023/12/09 11:26:33;;;;;;;20.40;6.60;;;26.70;96.70;;;;;;5057483;28;21456;-70
2023/12/09 11:29:08;;;;;;;29.10;7.35;;;26.60;97.00;;;;;;5053781;28;20048;-71
2023/12/09 11:31:41;;;;;;;22.52;6.28;;;26.60;96.90;;;;;;5055299;28;20454;-72
2023/12/09 11:34:11;;;;;;;20.30;5.32;;;26.80;96.60;;;;;;5052704;28;20017;-71
2023/12/09 11:36:40;;;;;;;24.88;5.40;;;26.70;96.80;;;;;;5049251;28;20033;-71
2023/12/09 11:39:10;;;;;;;18.50;5.28;;;26.70;96.80;;;;;;5048231;28;20409;-71
2023/12/09 11:41:41;;;;;;;18.77;4.97;;;26.60;96.70;;;;;;5052737;28;20033;-71
2023/12/09 11:44:11;;;;;;;21.83;5.40;;;26.60;96.80;;;;;;5049151;28;20537;-71
2023/12/09 11:46:39;;;;;;;19.38;4.63;;;26.50;97.10;;;;;;5047595;28;20028;-72
2023/12/09 11:49:08;;;;;;;17.63;5.28;;;26.40;97.00;;;;;;5055187;28;20070;-70
2023/12/09 11:51:37;;;;;;;16.80;4.70;;;26.50;97.00;;;;;;5044083;28;20515;-71
2023/12/09 11:54:07;;;;;;;17.55;4.30;;;26.50;97.10;;;;;;5048452;28;20548;-71
2023/12/09 11:56:34;;;;;;;15.18;4.25;;;26.60;97.00;;;;;;5046888;28;20055;-71
2023/12/09 11:59:02;;;;;;;14.27;4.50;;;26.70;96.90;;;;;;5049324;28;20050;-71
2023/12/09 12:01:30;;;;;;;14.07;3.50;;;26.70;96.70;;;;;;5047613;28;20029;-71
2023/12/09 12:03:58;;;;;;;14.95;4.10;;;26.70;96.60;;;;;;5046171;28;20033;-70
2023/12/09 12:06:25;;;;;;;10.55;3.90;;;26.60;96.70;;;;;;5062561;28;20068;-71
2023/12/09 12:08:54;;;;;;;14.70;3.97;;;26.60;96.60;;;;;;5048318;28;20033;-72
2023/12/09 12:11:23;;;;;;;12.50;3.90;;;26.60;96.60;;;;;;5045531;28;20025;-71
2023/12/09 12:13:52;;;;;;;12.75;3.72;;;26.50;96.70;;;;;;5056953;28;20028;-71
2023/12/09 12:16:20;;;;;;;11.80;3.42;;;26.60;96.60;;;;;;5056291;28;20036;-71
2023/12/09 12:18:47;;;;;;;14.80;3.55;;;26.50;96.60;;;;;;5048741;28;20031;-71
2023/12/09 12:21:14;;;;;;;12.98;4.00;;;26.50;96.70;;;;;;5050201;28;20090;-71
2023/12/09 12:23:42;;;;;;;11.90;3.67;;;26.60;96.60;;;;;;5052999;28;20068;-70
2023/12/09 12:26:11;;;;;;;11.57;3.80;;;26.70;96.40;;;;;;5040738;28;20036;-70
2023/12/09 12:28:38;;;;;;;19.00;5.05;;;26.70;96.30;;;;;;5049855;28;20039;-71
2023/12/09 12:31:06;;;;;;;15.65;3.83;;;26.70;96.40;;;;;;5045242;28;20039;-71
2023/12/09 12:33:34;;;;;;;17.25;4.25;;;26.60;96.10;;;;;;5044632;28;20033;-72
2023/12/09 12:36:01;;;;;;;14.30;3.75;;;26.60;96.20;;;;;;5047721;28;20071;-71
2023/12/09 12:38:28;;;;;;;13.80;3.30;;;26.50;96.20;;;;;;5046320;28;20024;-71
2023/12/09 12:40:57;;;;;;;12.35;3.72;;;26.40;96.30;;;;;;5048588;28;20033;-70
2023/12/09 12:43:30;;;;;;;13.60;4.05;;;26.30;96.50;;;;;;5054565;28;20447;-71
2023/12/09 12:45:59;;;;;;;11.88;3.00;;;26.30;96.50;;;;;;5054163;28;20478;-71
2023/12/09 12:48:26;;;;;;;14.98;4.03;;;26.40;96.50;;;;;;5050923;28;20037;-71